Lebanon, VA

4:16 AM EDT on July 02, 2015 (GMT -0400)
White's Mill | | Change Station
CLOSE
Current Station
Personal Weather Station
Location: Abingdon, VA
Elevation: 2113 ft
Nearby Weather Stations

Elev 2113 ft 36.77 °N, 81.98 °W | Updated 1 minute ago

Overcast
Overcast
65.2 °F
Feels Like 65.2 °F
N
2.0
Wind Variable Wind from WSW
Gusts 7.0 mph

Today
High -- | Low -- °F
--% Chance of Precip.
Yesterday
High -- | Low -- °F
Precip. -- in
6:13 AM 8:51 PM
Full, 100% visible
Pressure 29.92 in
Visibility 6.0 miles
Clouds Mostly Cloudy 1000 ft
Overcast 2200 ft
Dew Point 63 °F
Humidity 94%
Rainfall 0.00 in
Snow Depth Not available.
UV 0 out of 12
Pollen 2.90 out of 12
Air Quality Not available.
Flu Activity Not available.
METAR KTRI 020753Z 23007KT 6SM -RA BR BKN010 OVC022 19/18 A2999 RMK AO2 RAB04 SLP130 P0001 T01890183

More Conditions Fewer Conditions

Pressure 29.92 in
Visibility 6.0 miles
Clouds Mostly Cloudy 1000 ft
Overcast 2200 ft
Dew Point 63 °F
Humidity 94%
Rainfall 0.00 in
Snow Depth Not available.
UV 0 out of 12
Pollen 2.90 out of 12
Air Quality Not available.
Flu Activity Not available.
METAR KTRI 020753Z 23007KT 6SM -RA BR BKN010 OVC022 19/18 A2999 RMK AO2 RAB04 SLP130 P0001 T01890183

More Conditions Fewer Conditions

10-Day Weather Forecast

×

Almanac

Astronomy

Jul. 02, 2015 Rise Set
Actual Time
Civil Twilight
Nautical Twilight
Astronomical Twilight
Moon
Length of Visible Light
Length of Day
Tomorrow will be .
, % of the Moon is Illuminated

Today's Extremes

State Highs State Lows

Community

WunderPhotos

Upload Photos

1,834,423 photos uploaded!

WunderBlogs® & News

Nearby

Air Quality

  Air Quality AQ Index Pollutant
Not available.

Snow Depth

Station Depth Elevation

Earthquake Activity

City Distance Mag. Time & Date
Minimum magnitude displayed is 2.5.

Coastal Water Temperatures

Place Temperature

Stations

Nearby Weather Stations

Station Location Temp. Windchill Dew Point Humidity Wind Precip. Elev Updated Type